sensor_id;sensor_type;location;lat;lon;timestamp;P1;durP1;ratioP1;P2;durP2;ratioP2
65033;SDS011;51601;51.356;12.458;2023-07-20T00:02:08;12.57;;;9.13;;
65033;SDS011;51601;51.356;12.458;2023-07-20T00:06:26;14.25;;;9.20;;
65033;SDS011;51601;51.356;12.458;2023-07-20T00:10:46;14.00;;;9.25;;
65033;SDS011;51601;51.356;12.458;2023-07-20T00:15:05;13.03;;;8.27;;
65033;SDS011;51601;51.356;12.458;2023-07-20T00:19:24;10.63;;;7.47;;
65033;SDS011;51601;51.356;12.458;2023-07-20T00:23:44;13.80;;;7.47;;
65033;SDS011;51601;51.356;12.458;2023-07-20T00:28:07;11.60;;;6.70;;
65033;SDS011;51601;51.356;12.458;2023-07-20T00:32:27;10.70;;;6.40;;
65033;SDS011;51601;51.356;12.458;2023-07-20T00:36:45;9.57;;;6.25;;
65033;SDS011;51601;51.356;12.458;2023-07-20T00:41:06;9.23;;;5.90;;
65033;SDS011;51601;51.356;12.458;2023-07-20T00:45:25;9.65;;;5.38;;
65033;SDS011;51601;51.356;12.458;2023-07-20T00:49:45;12.50;;;6.38;;
65033;SDS011;51601;51.356;12.458;2023-07-20T00:54:09;8.13;;;5.18;;
65033;SDS011;51601;51.356;12.458;2023-07-20T00:58:27;9.23;;;5.33;;
65033;SDS011;51601;51.356;12.458;2023-07-20T01:02:47;8.93;;;5.53;;
65033;SDS011;51601;51.356;12.458;2023-07-20T01:07:09;9.27;;;5.40;;
65033;SDS011;51601;51.356;12.458;2023-07-20T01:11:36;9.50;;;6.00;;
65033;SDS011;51601;51.356;12.458;2023-07-20T01:15:56;9.57;;;5.25;;
65033;SDS011;51601;51.356;12.458;2023-07-20T01:20:18;8.95;;;5.90;;
65033;SDS011;51601;51.356;12.458;2023-07-20T01:29:43;11.52;;;5.65;;
65033;SDS011;51601;51.356;12.458;2023-07-20T01:34:17;9.68;;;5.97;;
65033;SDS011;51601;51.356;12.458;2023-07-20T01:38:36;11.43;;;6.10;;
65033;SDS011;51601;51.356;12.458;2023-07-20T01:42:54;11.40;;;6.37;;
65033;SDS011;51601;51.356;12.458;2023-07-20T01:47:12;11.73;;;6.70;;
65033;SDS011;51601;51.356;12.458;2023-07-20T01:51:32;10.98;;;6.63;;
65033;SDS011;51601;51.356;12.458;2023-07-20T01:55:52;11.17;;;6.57;;
65033;SDS011;51601;51.356;12.458;2023-07-20T02:00:12;9.85;;;6.10;;
65033;SDS011;51601;51.356;12.458;2023-07-20T02:04:30;10.85;;;6.32;;
65033;SDS011;51601;51.356;12.458;2023-07-20T02:08:50;9.37;;;6.00;;
65033;SDS011;51601;51.356;12.458;2023-07-20T02:13:06;10.20;;;6.63;;
65033;SDS011;51601;51.356;12.458;2023-07-20T02:17:24;10.30;;;6.03;;
65033;SDS011;51601;51.356;12.458;2023-07-20T02:21:43;9.82;;;5.43;;
65033;SDS011;51601;51.356;12.458;2023-07-20T02:26:02;10.70;;;5.40;;
65033;SDS011;51601;51.356;12.458;2023-07-20T02:30:22;10.32;;;5.70;;
65033;SDS011;51601;51.356;12.458;2023-07-20T02:34:40;9.27;;;5.78;;
65033;SDS011;51601;51.356;12.458;2023-07-20T02:38:58;10.17;;;5.50;;
65033;SDS011;51601;51.356;12.458;2023-07-20T02:43:17;10.57;;;5.25;;
65033;SDS011;51601;51.356;12.458;2023-07-20T02:47:34;9.55;;;5.53;;
65033;SDS011;51601;51.356;12.458;2023-07-20T02:51:52;10.27;;;5.20;;
65033;SDS011;51601;51.356;12.458;2023-07-20T02:56:10;11.18;;;5.60;;
65033;SDS011;51601;51.356;12.458;2023-07-20T03:00:33;10.48;;;5.32;;
65033;SDS011;51601;51.356;12.458;2023-07-20T03:04:52;9.82;;;6.20;;
65033;SDS011;51601;51.356;12.458;2023-07-20T03:09:10;12.00;;;5.90;;
65033;SDS011;51601;51.356;12.458;2023-07-20T03:13:28;10.05;;;6.05;;
65033;SDS011;51601;51.356;12.458;2023-07-20T03:17:48;11.15;;;6.13;;
65033;SDS011;51601;51.356;12.458;2023-07-20T03:22:08;10.40;;;6.23;;
65033;SDS011;51601;51.356;12.458;2023-07-20T03:26:26;10.95;;;6.10;;
65033;SDS011;51601;51.356;12.458;2023-07-20T03:30:44;10.98;;;6.70;;
65033;SDS011;51601;51.356;12.458;2023-07-20T03:35:04;11.67;;;6.73;;
65033;SDS011;51601;51.356;12.458;2023-07-20T03:39:23;11.80;;;6.55;;
65033;SDS011;51601;51.356;12.458;2023-07-20T03:43:41;11.68;;;6.60;;
65033;SDS011;51601;51.356;12.458;2023-07-20T03:47:59;10.60;;;6.93;;
65033;SDS011;51601;51.356;12.458;2023-07-20T03:52:18;10.77;;;6.87;;
65033;SDS011;51601;51.356;12.458;2023-07-20T03:56:35;10.50;;;6.38;;
65033;SDS011;51601;51.356;12.458;2023-07-20T04:00:53;12.40;;;6.72;;
65033;SDS011;51601;51.356;12.458;2023-07-20T04:05:11;9.90;;;6.07;;
65033;SDS011;51601;51.356;12.458;2023-07-20T04:09:31;13.45;;;5.78;;
65033;SDS011;51601;51.356;12.458;2023-07-20T04:13:50;9.13;;;5.45;;
65033;SDS011;51601;51.356;12.458;2023-07-20T04:18:08;15.07;;;5.50;;
65033;SDS011;51601;51.356;12.458;2023-07-20T04:22:27;8.73;;;5.07;;
65033;SDS011;51601;51.356;12.458;2023-07-20T04:26:46;10.07;;;5.05;;
65033;SDS011;51601;51.356;12.458;2023-07-20T04:31:09;8.98;;;4.80;;
65033;SDS011;51601;51.356;12.458;2023-07-20T04:35:47;8.63;;;4.53;;
65033;SDS011;51601;51.356;12.458;2023-07-20T04:40:10;11.05;;;5.30;;
65033;SDS011;51601;51.356;12.458;2023-07-20T04:44:29;11.13;;;5.00;;
65033;SDS011;51601;51.356;12.458;2023-07-20T04:48:46;10.63;;;5.00;;
65033;SDS011;51601;51.356;12.458;2023-07-20T04:53:04;10.25;;;5.40;;
65033;SDS011;51601;51.356;12.458;2023-07-20T04:57:23;11.45;;;5.43;;
65033;SDS011;51601;51.356;12.458;2023-07-20T05:01:41;12.77;;;6.10;;
65033;SDS011;51601;51.356;12.458;2023-07-20T05:06:01;10.23;;;5.72;;
65033;SDS011;51601;51.356;12.458;2023-07-20T05:10:19;9.30;;;5.25;;
65033;SDS011;51601;51.356;12.458;2023-07-20T05:14:43;11.40;;;5.72;;
65033;SDS011;51601;51.356;12.458;2023-07-20T05:19:02;9.27;;;5.17;;
65033;SDS011;51601;51.356;12.458;2023-07-20T05:23:19;13.70;;;5.80;;
65033;SDS011;51601;51.356;12.458;2023-07-20T05:27:38;10.48;;;5.78;;
65033;SDS011;51601;51.356;12.458;2023-07-20T05:31:55;9.13;;;5.07;;
65033;SDS011;51601;51.356;12.458;2023-07-20T05:36:15;10.13;;;5.00;;
65033;SDS011;51601;51.356;12.458;2023-07-20T05:40:36;14.07;;;5.43;;
65033;SDS011;51601;51.356;12.458;2023-07-20T05:44:56;9.60;;;5.33;;
65033;SDS011;51601;51.356;12.458;2023-07-20T05:49:14;9.15;;;4.55;;
65033;SDS011;51601;51.356;12.458;2023-07-20T05:53:34;12.60;;;5.18;;
65033;SDS011;51601;51.356;12.458;2023-07-20T05:57:53;8.85;;;4.47;;
65033;SDS011;51601;51.356;12.458;2023-07-20T06:02:11;11.50;;;4.83;;
65033;SDS011;51601;51.356;12.458;2023-07-20T06:06:29;8.93;;;4.53;;
65033;SDS011;51601;51.356;12.458;2023-07-20T06:10:51;8.65;;;3.97;;
65033;SDS011;51601;51.356;12.458;2023-07-20T06:15:23;9.33;;;3.83;;
65033;SDS011;51601;51.356;12.458;2023-07-20T06:19:42;7.40;;;3.20;;
65033;SDS011;51601;51.356;12.458;2023-07-20T06:24:00;6.75;;;2.63;;
65033;SDS011;51601;51.356;12.458;2023-07-20T06:28:19;8.80;;;2.87;;
65033;SDS011;51601;51.356;12.458;2023-07-20T06:32:36;8.45;;;2.90;;
65033;SDS011;51601;51.356;12.458;2023-07-20T06:36:54;9.40;;;3.22;;
65033;SDS011;51601;51.356;12.458;2023-07-20T06:41:12;8.45;;;2.70;;
65033;SDS011;51601;51.356;12.458;2023-07-20T06:45:34;7.60;;;2.80;;
65033;SDS011;51601;51.356;12.458;2023-07-20T06:49:51;8.65;;;2.95;;
65033;SDS011;51601;51.356;12.458;2023-07-20T06:54:09;8.30;;;3.10;;
65033;SDS011;51601;51.356;12.458;2023-07-20T06:58:27;6.87;;;2.20;;
65033;SDS011;51601;51.356;12.458;2023-07-20T07:02:47;6.50;;;2.40;;
65033;SDS011;51601;51.356;12.458;2023-07-20T07:07:06;6.28;;;2.60;;
65033;SDS011;51601;51.356;12.458;2023-07-20T07:11:24;7.53;;;2.67;;
65033;SDS011;51601;51.356;12.458;2023-07-20T07:15:43;5.85;;;2.40;;
65033;SDS011;51601;51.356;12.458;2023-07-20T07:20:02;5.72;;;2.35;;
65033;SDS011;51601;51.356;12.458;2023-07-20T07:24:25;6.80;;;3.00;;
65033;SDS011;51601;51.356;12.458;2023-07-20T07:28:46;8.83;;;2.27;;
65033;SDS011;51601;51.356;12.458;2023-07-20T07:33:04;5.88;;;2.25;;
65033;SDS011;51601;51.356;12.458;2023-07-20T07:37:23;6.28;;;2.42;;
65033;SDS011;51601;51.356;12.458;2023-07-20T07:41:43;6.17;;;2.50;;
65033;SDS011;51601;51.356;12.458;2023-07-20T07:46:01;7.75;;;2.75;;
65033;SDS011;51601;51.356;12.458;2023-07-20T07:50:19;5.57;;;2.85;;
65033;SDS011;51601;51.356;12.458;2023-07-20T07:54:39;7.47;;;3.00;;
65033;SDS011;51601;51.356;12.458;2023-07-20T07:58:55;7.22;;;2.90;;
65033;SDS011;51601;51.356;12.458;2023-07-20T08:03:14;5.55;;;2.60;;
65033;SDS011;51601;51.356;12.458;2023-07-20T08:07:32;5.72;;;2.90;;
65033;SDS011;51601;51.356;12.458;2023-07-20T08:11:51;5.40;;;2.60;;
65033;SDS011;51601;51.356;12.458;2023-07-20T08:16:08;8.30;;;2.80;;
65033;SDS011;51601;51.356;12.458;2023-07-20T08:20:26;6.57;;;2.80;;
65033;SDS011;51601;51.356;12.458;2023-07-20T08:24:44;24.63;;;17.17;;
65033;SDS011;51601;51.356;12.458;2023-07-20T08:29:03;7.25;;;3.50;;
65033;SDS011;51601;51.356;12.458;2023-07-20T08:33:20;6.00;;;3.35;;
65033;SDS011;51601;51.356;12.458;2023-07-20T08:37:38;7.63;;;3.93;;
65033;SDS011;51601;51.356;12.458;2023-07-20T08:41:56;7.70;;;3.67;;
65033;SDS011;51601;51.356;12.458;2023-07-20T08:46:21;6.68;;;3.60;;
65033;SDS011;51601;51.356;12.458;2023-07-20T08:50:41;7.95;;;3.35;;
65033;SDS011;51601;51.356;12.458;2023-07-20T08:54:59;8.70;;;2.87;;
65033;SDS011;51601;51.356;12.458;2023-07-20T08:59:21;8.80;;;3.67;;
65033;SDS011;51601;51.356;12.458;2023-07-20T09:03:43;8.40;;;2.95;;
65033;SDS011;51601;51.356;12.458;2023-07-20T09:08:03;5.97;;;2.50;;
65033;SDS011;51601;51.356;12.458;2023-07-20T09:12:21;6.47;;;2.97;;
65033;SDS011;51601;51.356;12.458;2023-07-20T09:16:48;6.88;;;3.10;;
65033;SDS011;51601;51.356;12.458;2023-07-20T09:21:07;6.93;;;3.03;;
65033;SDS011;51601;51.356;12.458;2023-07-20T09:25:24;6.13;;;2.97;;
65033;SDS011;51601;51.356;12.458;2023-07-20T09:29:48;8.90;;;3.25;;
65033;SDS011;51601;51.356;12.458;2023-07-20T09:34:06;7.93;;;3.40;;
65033;SDS011;51601;51.356;12.458;2023-07-20T09:38:26;6.33;;;3.60;;
65033;SDS011;51601;51.356;12.458;2023-07-20T09:43:07;8.32;;;3.80;;
65033;SDS011;51601;51.356;12.458;2023-07-20T09:47:28;7.28;;;4.03;;
65033;SDS011;51601;51.356;12.458;2023-07-20T09:51:46;8.07;;;4.20;;
65033;SDS011;51601;51.356;12.458;2023-07-20T09:56:06;8.13;;;4.40;;
65033;SDS011;51601;51.356;12.458;2023-07-20T10:00:26;11.23;;;5.60;;
65033;SDS011;51601;51.356;12.458;2023-07-20T10:04:47;11.10;;;6.93;;
65033;SDS011;51601;51.356;12.458;2023-07-20T10:09:08;9.35;;;7.00;;
65033;SDS011;51601;51.356;12.458;2023-07-20T10:13:31;11.55;;;7.15;;
65033;SDS011;51601;51.356;12.458;2023-07-20T10:17:57;9.13;;;6.53;;
65033;SDS011;51601;51.356;12.458;2023-07-20T10:22:23;9.20;;;6.30;;
65033;SDS011;51601;51.356;12.458;2023-07-20T10:26:42;11.85;;;6.25;;
65033;SDS011;51601;51.356;12.458;2023-07-20T10:31:11;8.88;;;6.20;;
65033;SDS011;51601;51.356;12.458;2023-07-20T10:40:26;9.73;;;4.80;;
65033;SDS011;51601;51.356;12.458;2023-07-20T10:44:46;6.75;;;3.40;;
65033;SDS011;51601;51.356;12.458;2023-07-20T10:49:06;5.70;;;3.10;;
65033;SDS011;51601;51.356;12.458;2023-07-20T10:53:25;8.52;;;3.97;;
65033;SDS011;51601;51.356;12.458;2023-07-20T10:57:44;6.13;;;3.28;;
65033;SDS011;51601;51.356;12.458;2023-07-20T11:02:29;8.63;;;3.97;;
65033;SDS011;51601;51.356;12.458;2023-07-20T11:07:10;6.73;;;3.00;;
65033;SDS011;51601;51.356;12.458;2023-07-20T11:11:34;5.65;;;2.90;;
65033;SDS011;51601;51.356;12.458;2023-07-20T11:16:03;6.53;;;2.55;;
65033;SDS011;51601;51.356;12.458;2023-07-20T11:20:24;7.93;;;2.57;;
65033;SDS011;51601;51.356;12.458;2023-07-20T11:24:44;5.50;;;2.17;;
65033;SDS011;51601;51.356;12.458;2023-07-20T11:29:06;4.88;;;2.03;;
65033;SDS011;51601;51.356;12.458;2023-07-20T11:33:45;5.70;;;2.17;;
65033;SDS011;51601;51.356;12.458;2023-07-20T11:38:08;6.50;;;2.70;;
65033;SDS011;51601;51.356;12.458;2023-07-20T11:42:31;5.65;;;2.40;;
65033;SDS011;51601;51.356;12.458;2023-07-20T11:47:02;5.70;;;2.50;;
65033;SDS011;51601;51.356;12.458;2023-07-20T11:51:23;5.53;;;2.23;;
65033;SDS011;51601;51.356;12.458;2023-07-20T11:55:44;6.82;;;2.20;;
65033;SDS011;51601;51.356;12.458;2023-07-20T12:00:11;5.85;;;2.20;;
65033;SDS011;51601;51.356;12.458;2023-07-20T12:04:33;8.00;;;4.37;;
65033;SDS011;51601;51.356;12.458;2023-07-20T12:08:54;6.30;;;2.20;;
65033;SDS011;51601;51.356;12.458;2023-07-20T12:13:15;6.03;;;2.30;;
65033;SDS011;51601;51.356;12.458;2023-07-20T12:17:38;6.73;;;2.30;;
65033;SDS011;51601;51.356;12.458;2023-07-20T12:22:00;5.68;;;2.22;;
65033;SDS011;51601;51.356;12.458;2023-07-20T12:26:21;5.07;;;2.40;;
65033;SDS011;51601;51.356;12.458;2023-07-20T12:30:43;5.60;;;2.60;;
65033;SDS011;51601;51.356;12.458;2023-07-20T12:35:05;6.20;;;2.27;;
65033;SDS011;51601;51.356;12.458;2023-07-20T12:39:24;4.72;;;2.00;;
65033;SDS011;51601;51.356;12.458;2023-07-20T12:43:43;4.60;;;1.80;;
65033;SDS011;51601;51.356;12.458;2023-07-20T12:48:13;3.87;;;1.53;;
65033;SDS011;51601;51.356;12.458;2023-07-20T12:52:37;3.60;;;1.33;;
65033;SDS011;51601;51.356;12.458;2023-07-20T12:56:58;3.85;;;1.30;;
65033;SDS011;51601;51.356;12.458;2023-07-20T13:01:26;3.37;;;1.10;;
65033;SDS011;51601;51.356;12.458;2023-07-20T13:05:47;3.90;;;1.55;;
65033;SDS011;51601;51.356;12.458;2023-07-20T13:10:12;5.47;;;1.90;;
65033;SDS011;51601;51.356;12.458;2023-07-20T13:14:32;8.90;;;3.53;;
65033;SDS011;51601;51.356;12.458;2023-07-20T13:18:50;8.73;;;3.20;;
65033;SDS011;51601;51.356;12.458;2023-07-20T13:23:08;4.90;;;1.70;;
65033;SDS011;51601;51.356;12.458;2023-07-20T13:27:28;6.20;;;1.70;;
65033;SDS011;51601;51.356;12.458;2023-07-20T13:31:47;4.90;;;1.83;;
65033;SDS011;51601;51.356;12.458;2023-07-20T13:36:11;3.75;;;1.38;;
65033;SDS011;51601;51.356;12.458;2023-07-20T13:40:30;5.03;;;1.95;;
65033;SDS011;51601;51.356;12.458;2023-07-20T13:44:52;4.77;;;2.00;;
65033;SDS011;51601;51.356;12.458;2023-07-20T13:49:12;4.72;;;2.13;;
65033;SDS011;51601;51.356;12.458;2023-07-20T13:53:39;6.68;;;2.72;;
65033;SDS011;51601;51.356;12.458;2023-07-20T13:58:00;5.57;;;2.40;;
65033;SDS011;51601;51.356;12.458;2023-07-20T14:02:20;5.30;;;2.63;;
65033;SDS011;51601;51.356;12.458;2023-07-20T14:06:39;5.20;;;2.60;;
65033;SDS011;51601;51.356;12.458;2023-07-20T14:10:57;5.53;;;2.20;;
65033;SDS011;51601;51.356;12.458;2023-07-20T14:15:18;6.17;;;2.43;;
65033;SDS011;51601;51.356;12.458;2023-07-20T14:19:38;4.80;;;2.30;;
65033;SDS011;51601;51.356;12.458;2023-07-20T14:23:58;5.78;;;2.30;;
65033;SDS011;51601;51.356;12.458;2023-07-20T14:28:16;4.70;;;2.20;;
65033;SDS011;51601;51.356;12.458;2023-07-20T14:32:34;5.20;;;2.10;;
65033;SDS011;51601;51.356;12.458;2023-07-20T14:36:53;5.30;;;2.50;;
65033;SDS011;51601;51.356;12.458;2023-07-20T14:41:10;6.28;;;2.33;;
65033;SDS011;51601;51.356;12.458;2023-07-20T14:45:28;6.23;;;2.93;;
65033;SDS011;51601;51.356;12.458;2023-07-20T14:49:46;5.93;;;2.70;;
65033;SDS011;51601;51.356;12.458;2023-07-20T14:54:05;5.47;;;2.30;;
65033;SDS011;51601;51.356;12.458;2023-07-20T14:58:22;5.47;;;2.60;;
65033;SDS011;51601;51.356;12.458;2023-07-20T15:02:40;5.35;;;2.53;;
65033;SDS011;51601;51.356;12.458;2023-07-20T15:07:01;6.85;;;2.40;;
65033;SDS011;51601;51.356;12.458;2023-07-20T15:11:21;5.23;;;2.57;;
65033;SDS011;51601;51.356;12.458;2023-07-20T15:15:40;5.43;;;2.85;;
65033;SDS011;51601;51.356;12.458;2023-07-20T15:19:58;6.25;;;2.60;;
65033;SDS011;51601;51.356;12.458;2023-07-20T15:24:16;5.22;;;2.92;;
65033;SDS011;51601;51.356;12.458;2023-07-20T15:28:36;5.13;;;2.60;;
65033;SDS011;51601;51.356;12.458;2023-07-20T15:32:56;6.15;;;2.50;;
65033;SDS011;51601;51.356;12.458;2023-07-20T15:37:17;5.60;;;2.80;;
65033;SDS011;51601;51.356;12.458;2023-07-20T15:41:35;5.10;;;2.67;;
65033;SDS011;51601;51.356;12.458;2023-07-20T15:46:00;5.60;;;2.30;;
65033;SDS011;51601;51.356;12.458;2023-07-20T15:50:23;4.80;;;2.05;;
65033;SDS011;51601;51.356;12.458;2023-07-20T15:54:41;4.30;;;1.67;;
65033;SDS011;51601;51.356;12.458;2023-07-20T15:58:59;4.10;;;1.33;;
65033;SDS011;51601;51.356;12.458;2023-07-20T16:03:19;3.92;;;1.50;;
65033;SDS011;51601;51.356;12.458;2023-07-20T16:07:35;3.55;;;1.35;;
65033;SDS011;51601;51.356;12.458;2023-07-20T16:11:53;3.80;;;1.27;;
65033;SDS011;51601;51.356;12.458;2023-07-20T16:16:12;4.40;;;1.40;;
65033;SDS011;51601;51.356;12.458;2023-07-20T16:20:31;4.28;;;1.50;;
65033;SDS011;51601;51.356;12.458;2023-07-20T16:24:48;4.10;;;1.90;;
65033;SDS011;51601;51.356;12.458;2023-07-20T16:29:06;4.53;;;1.60;;
65033;SDS011;51601;51.356;12.458;2023-07-20T16:33:27;3.92;;;1.48;;
65033;SDS011;51601;51.356;12.458;2023-07-20T16:37:46;3.40;;;1.40;;
65033;SDS011;51601;51.356;12.458;2023-07-20T16:42:24;3.55;;;1.40;;
65033;SDS011;51601;51.356;12.458;2023-07-20T16:46:46;3.72;;;1.48;;
65033;SDS011;51601;51.356;12.458;2023-07-20T16:51:07;4.53;;;1.60;;
65033;SDS011;51601;51.356;12.458;2023-07-20T16:55:26;4.83;;;2.07;;
65033;SDS011;51601;51.356;12.458;2023-07-20T16:59:43;3.80;;;1.50;;
65033;SDS011;51601;51.356;12.458;2023-07-20T17:04:01;3.20;;;1.35;;
65033;SDS011;51601;51.356;12.458;2023-07-20T17:08:19;4.47;;;1.57;;
65033;SDS011;51601;51.356;12.458;2023-07-20T17:12:39;5.03;;;1.80;;
65033;SDS011;51601;51.356;12.458;2023-07-20T17:16:58;4.05;;;1.52;;
65033;SDS011;51601;51.356;12.458;2023-07-20T17:21:16;4.37;;;1.80;;
65033;SDS011;51601;51.356;12.458;2023-07-20T17:25:34;4.22;;;1.50;;
65033;SDS011;51601;51.356;12.458;2023-07-20T17:29:54;4.35;;;1.50;;
65033;SDS011;51601;51.356;12.458;2023-07-20T17:34:13;4.18;;;1.30;;
65033;SDS011;51601;51.356;12.458;2023-07-20T17:38:31;2.83;;;1.03;;
65033;SDS011;51601;51.356;12.458;2023-07-20T17:42:53;3.78;;;1.38;;
65033;SDS011;51601;51.356;12.458;2023-07-20T17:47:15;3.67;;;1.38;;
65033;SDS011;51601;51.356;12.458;2023-07-20T17:51:35;3.90;;;1.30;;
65033;SDS011;51601;51.356;12.458;2023-07-20T17:55:53;3.72;;;1.30;;
65033;SDS011;51601;51.356;12.458;2023-07-20T18:00:11;4.70;;;1.20;;
65033;SDS011;51601;51.356;12.458;2023-07-20T18:04:37;5.40;;;1.20;;
65033;SDS011;51601;51.356;12.458;2023-07-20T18:08:56;5.05;;;1.80;;
65033;SDS011;51601;51.356;12.458;2023-07-20T18:13:14;3.17;;;1.20;;
65033;SDS011;51601;51.356;12.458;2023-07-20T18:17:32;3.90;;;1.30;;
65033;SDS011;51601;51.356;12.458;2023-07-20T18:21:52;3.17;;;1.40;;
65033;SDS011;51601;51.356;12.458;2023-07-20T18:26:08;3.38;;;1.25;;
65033;SDS011;51601;51.356;12.458;2023-07-20T18:30:27;3.60;;;1.40;;
65033;SDS011;51601;51.356;12.458;2023-07-20T18:34:48;3.70;;;1.30;;
65033;SDS011;51601;51.356;12.458;2023-07-20T18:39:07;3.10;;;1.30;;
65033;SDS011;51601;51.356;12.458;2023-07-20T18:43:24;5.65;;;1.58;;
65033;SDS011;51601;51.356;12.458;2023-07-20T18:47:42;4.67;;;1.70;;
65033;SDS011;51601;51.356;12.458;2023-07-20T18:52:00;4.95;;;2.10;;
65033;SDS011;51601;51.356;12.458;2023-07-20T18:56:19;4.40;;;1.67;;
65033;SDS011;51601;51.356;12.458;2023-07-20T19:00:39;4.70;;;1.90;;
65033;SDS011;51601;51.356;12.458;2023-07-20T19:04:57;4.70;;;1.50;;
65033;SDS011;51601;51.356;12.458;2023-07-20T19:09:15;4.70;;;1.95;;
65033;SDS011;51601;51.356;12.458;2023-07-20T19:13:35;4.47;;;1.58;;
65033;SDS011;51601;51.356;12.458;2023-07-20T19:17:51;4.27;;;1.60;;
65033;SDS011;51601;51.356;12.458;2023-07-20T19:22:09;5.00;;;1.65;;
65033;SDS011;51601;51.356;12.458;2023-07-20T19:26:30;4.70;;;1.70;;
65033;SDS011;51601;51.356;12.458;2023-07-20T19:30:50;6.13;;;1.97;;
65033;SDS011;51601;51.356;12.458;2023-07-20T19:35:10;5.20;;;2.00;;
65033;SDS011;51601;51.356;12.458;2023-07-20T19:39:31;5.80;;;2.13;;
65033;SDS011;51601;51.356;12.458;2023-07-20T19:43:49;5.88;;;2.53;;
65033;SDS011;51601;51.356;12.458;2023-07-20T19:48:08;7.07;;;3.10;;
65033;SDS011;51601;51.356;12.458;2023-07-20T19:52:28;6.57;;;3.20;;
65033;SDS011;51601;51.356;12.458;2023-07-20T19:56:46;6.85;;;2.60;;
65033;SDS011;51601;51.356;12.458;2023-07-20T20:01:04;7.57;;;3.83;;
65033;SDS011;51601;51.356;12.458;2023-07-20T20:05:27;14.93;;;5.60;;
65033;SDS011;51601;51.356;12.458;2023-07-20T20:09:46;9.52;;;3.22;;
65033;SDS011;51601;51.356;12.458;2023-07-20T20:14:08;11.40;;;3.77;;
65033;SDS011;51601;51.356;12.458;2023-07-20T20:18:26;5.03;;;2.15;;
65033;SDS011;51601;51.356;12.458;2023-07-20T20:22:45;7.38;;;2.92;;
65033;SDS011;51601;51.356;12.458;2023-07-20T20:27:05;7.45;;;2.70;;
65033;SDS011;51601;51.356;12.458;2023-07-20T20:31:23;6.37;;;2.10;;
65033;SDS011;51601;51.356;12.458;2023-07-20T20:35:41;6.10;;;2.83;;
65033;SDS011;51601;51.356;12.458;2023-07-20T20:40:01;6.35;;;2.70;;
65033;SDS011;51601;51.356;12.458;2023-07-20T20:44:20;6.37;;;2.53;;
65033;SDS011;51601;51.356;12.458;2023-07-20T20:48:41;6.00;;;2.50;;
65033;SDS011;51601;51.356;12.458;2023-07-20T20:53:02;5.80;;;2.42;;
65033;SDS011;51601;51.356;12.458;2023-07-20T20:57:22;6.87;;;3.03;;
65033;SDS011;51601;51.356;12.458;2023-07-20T21:01:38;6.60;;;2.90;;
65033;SDS011;51601;51.356;12.458;2023-07-20T21:05:56;6.32;;;2.80;;
65033;SDS011;51601;51.356;12.458;2023-07-20T21:10:15;7.47;;;2.50;;
65033;SDS011;51601;51.356;12.458;2023-07-20T21:14:34;5.67;;;2.63;;
65033;SDS011;51601;51.356;12.458;2023-07-20T21:18:51;6.45;;;2.63;;
65033;SDS011;51601;51.356;12.458;2023-07-20T21:23:09;6.32;;;2.63;;
65033;SDS011;51601;51.356;12.458;2023-07-20T21:27:27;5.87;;;2.70;;
65033;SDS011;51601;51.356;12.458;2023-07-20T21:31:46;6.35;;;2.63;;
65033;SDS011;51601;51.356;12.458;2023-07-20T21:36:03;6.40;;;3.28;;
65033;SDS011;51601;51.356;12.458;2023-07-20T21:40:21;7.77;;;3.10;;
65033;SDS011;51601;51.356;12.458;2023-07-20T21:44:39;5.78;;;2.60;;
65033;SDS011;51601;51.356;12.458;2023-07-20T21:48:58;13.77;;;8.27;;
65033;SDS011;51601;51.356;12.458;2023-07-20T21:53:15;7.47;;;3.83;;
65033;SDS011;51601;51.356;12.458;2023-07-20T21:57:33;7.13;;;3.17;;
65033;SDS011;51601;51.356;12.458;2023-07-20T22:01:51;8.23;;;3.25;;
65033;SDS011;51601;51.356;12.458;2023-07-20T22:06:17;6.65;;;2.78;;
65033;SDS011;51601;51.356;12.458;2023-07-20T22:10:33;7.03;;;2.93;;
65033;SDS011;51601;51.356;12.458;2023-07-20T22:14:52;6.25;;;2.80;;
65033;SDS011;51601;51.356;12.458;2023-07-20T22:19:10;5.60;;;2.40;;
65033;SDS011;51601;51.356;12.458;2023-07-20T22:23:29;6.57;;;2.50;;
65033;SDS011;51601;51.356;12.458;2023-07-20T22:27:49;6.47;;;2.88;;
65033;SDS011;51601;51.356;12.458;2023-07-20T22:32:07;6.72;;;2.30;;
65033;SDS011;51601;51.356;12.458;2023-07-20T22:36:25;6.20;;;2.40;;
65033;SDS011;51601;51.356;12.458;2023-07-20T22:40:45;6.13;;;2.40;;
65033;SDS011;51601;51.356;12.458;2023-07-20T22:45:04;5.60;;;2.53;;
65033;SDS011;51601;51.356;12.458;2023-07-20T22:49:25;5.13;;;2.33;;
65033;SDS011;51601;51.356;12.458;2023-07-20T22:53:46;6.20;;;2.50;;
65033;SDS011;51601;51.356;12.458;2023-07-20T22:58:06;6.00;;;2.33;;
65033;SDS011;51601;51.356;12.458;2023-07-20T23:02:25;5.30;;;2.40;;
65033;SDS011;51601;51.356;12.458;2023-07-20T23:06:43;5.47;;;2.40;;
65033;SDS011;51601;51.356;12.458;2023-07-20T23:11:02;5.40;;;2.38;;
65033;SDS011;51601;51.356;12.458;2023-07-20T23:15:21;5.32;;;2.38;;
65033;SDS011;51601;51.356;12.458;2023-07-20T23:19:38;8.32;;;2.47;;
65033;SDS011;51601;51.356;12.458;2023-07-20T23:23:56;5.83;;;2.17;;
65033;SDS011;51601;51.356;12.458;2023-07-20T23:28:14;6.63;;;2.35;;
65033;SDS011;51601;51.356;12.458;2023-07-20T23:32:33;5.97;;;2.20;;
65033;SDS011;51601;51.356;12.458;2023-07-20T23:36:50;8.27;;;2.33;;
65033;SDS011;51601;51.356;12.458;2023-07-20T23:41:08;6.45;;;2.50;;
65033;SDS011;51601;51.356;12.458;2023-07-20T23:45:26;5.15;;;2.17;;
65033;SDS011;51601;51.356;12.458;2023-07-20T23:49:49;5.50;;;2.40;;
65033;SDS011;51601;51.356;12.458;2023-07-20T23:54:05;5.70;;;2.63;;
65033;SDS011;51601;51.356;12.458;2023-07-20T23:58:23;5.43;;;2.22;;
